sensor_id;sensor_type;location;lat;lon;timestamp;pressure;altitude;pressure_sealevel;temperature;humidity
72721;BME280;60835;50.974;10.322;2023-04-28T00:01:49;98992.34;;;7.70;100.00
72721;BME280;60835;50.974;10.322;2023-04-28T00:04:16;98995.91;;;7.69;100.00
72721;BME280;60835;50.974;10.322;2023-04-28T00:06:43;98989.56;;;7.71;100.00
72721;BME280;60835;50.974;10.322;2023-04-28T00:09:10;98987.06;;;7.70;100.00
72721;BME280;60835;50.974;10.322;2023-04-28T00:11:38;98985.63;;;7.66;100.00
72721;BME280;60835;50.974;10.322;2023-04-28T00:14:05;98988.72;;;7.71;100.00
72721;BME280;60835;50.974;10.322;2023-04-28T00:16:31;98981.66;;;7.71;100.00
72721;BME280;60835;50.974;10.322;2023-04-28T00:18:58;98985.13;;;7.72;100.00
72721;BME280;60835;50.974;10.322;2023-04-28T00:21:25;98985.13;;;7.72;100.00
72721;BME280;60835;50.974;10.322;2023-04-28T00:23:52;98980.47;;;7.75;100.00
72721;BME280;60835;50.974;10.322;2023-04-28T00:26:18;98975.31;;;7.74;100.00
72721;BME280;60835;50.974;10.322;2023-04-28T00:28:45;98968.72;;;7.68;100.00
72721;BME280;60835;50.974;10.322;2023-04-28T00:31:12;98959.28;;;7.66;100.00
72721;BME280;60835;50.974;10.322;2023-04-28T00:33:39;98963.22;;;7.71;100.00
72721;BME280;60835;50.974;10.322;2023-04-28T00:36:06;98959.03;;;7.69;100.00
72721;BME280;60835;50.974;10.322;2023-04-28T00:38:33;98957.34;;;7.68;100.00
72721;BME280;60835;50.974;10.322;2023-04-28T00:40:59;98958.78;;;7.72;100.00
72721;BME280;60835;50.974;10.322;2023-04-28T00:43:26;98953.78;;;7.69;100.00
72721;BME280;60835;50.974;10.322;2023-04-28T00:45:52;98951.38;;;7.66;100.00
72721;BME280;60835;50.974;10.322;2023-04-28T00:48:19;98956.16;;;7.72;100.00
72721;BME280;60835;50.974;10.322;2023-04-28T00:50:46;98943.00;;;7.72;100.00
72721;BME280;60835;50.974;10.322;2023-04-28T00:53:13;98940.50;;;7.70;100.00
72721;BME280;60835;50.974;10.322;2023-04-28T00:55:39;98933.88;;;7.76;100.00
72721;BME280;60835;50.974;10.322;2023-04-28T00:58:06;98947.78;;;7.78;100.00
72721;BME280;60835;50.974;10.322;2023-04-28T01:00:33;98948.03;;;7.75;100.00
72721;BME280;60835;50.974;10.322;2023-04-28T01:03:00;98944.16;;;7.79;100.00
72721;BME280;60835;50.974;10.322;2023-04-28T01:05:28;98950.19;;;7.70;100.00
72721;BME280;60835;50.974;10.322;2023-04-28T01:07:55;98947.31;;;7.73;100.00
72721;BME280;60835;50.974;10.322;2023-04-28T01:10:22;98953.03;;;7.78;100.00
72721;BME280;60835;50.974;10.322;2023-04-28T01:12:48;98945.84;;;7.80;100.00
72721;BME280;60835;50.974;10.322;2023-04-28T01:15:16;98932.47;;;7.72;100.00
72721;BME280;60835;50.974;10.322;2023-04-28T01:17:44;98931.28;;;7.65;100.00
72721;BME280;60835;50.974;10.322;2023-04-28T01:20:11;98933.88;;;7.76;100.00
72721;BME280;60835;50.974;10.322;2023-04-28T01:22:37;98933.63;;;7.79;100.00
72721;BME280;60835;50.974;10.322;2023-04-28T01:25:04;98928.34;;;7.79;100.00
72721;BME280;60835;50.974;10.322;2023-04-28T01:27:30;98924.53;;;7.83;100.00
72721;BME280;60835;50.974;10.322;2023-04-28T01:29:58;98926.94;;;7.75;100.00
72721;BME280;60835;50.974;10.322;2023-04-28T01:32:28;98925.97;;;7.76;100.00
72721;BME280;60835;50.974;10.322;2023-04-28T01:34:55;98914.47;;;7.77;100.00
72721;BME280;60835;50.974;10.322;2023-04-28T01:37:21;98906.72;;;7.75;100.00
72721;BME280;60835;50.974;10.322;2023-04-28T01:39:48;98895.34;;;7.75;100.00
72721;BME280;60835;50.974;10.322;2023-04-28T01:42:14;98900.66;;;7.64;100.00
72721;BME280;60835;50.974;10.322;2023-04-28T01:44:41;98884.97;;;7.62;100.00
72721;BME280;60835;50.974;10.322;2023-04-28T01:47:07;98882.25;;;7.53;100.00
72721;BME280;60835;50.974;10.322;2023-04-28T01:49:34;98877.91;;;7.63;100.00
72721;BME280;60835;50.974;10.322;2023-04-28T01:52:01;98885.19;;;7.70;100.00
72721;BME280;60835;50.974;10.322;2023-04-28T01:54:27;98880.88;;;7.69;100.00
72721;BME280;60835;50.974;10.322;2023-04-28T01:56:54;98880.28;;;7.66;100.00
72721;BME280;60835;50.974;10.322;2023-04-28T01:59:21;98881.03;;;7.57;100.00
72721;BME280;60835;50.974;10.322;2023-04-28T02:01:47;98874.81;;;7.47;100.00
72721;BME280;60835;50.974;10.322;2023-04-28T02:04:14;98871.16;;;7.49;100.00
72721;BME280;60835;50.974;10.322;2023-04-28T02:06:41;98864.06;;;7.50;100.00
72721;BME280;60835;50.974;10.322;2023-04-28T02:09:11;98852.72;;;7.49;100.00
72721;BME280;60835;50.974;10.322;2023-04-28T02:11:38;98854.72;;;7.57;100.00
72721;BME280;60835;50.974;10.322;2023-04-28T02:14:05;98851.34;;;7.55;100.00
72721;BME280;60835;50.974;10.322;2023-04-28T02:16:32;98846.09;;;7.55;100.00
72721;BME280;60835;50.974;10.322;2023-04-28T02:18:59;98850.44;;;7.45;100.00
72721;BME280;60835;50.974;10.322;2023-04-28T02:21:25;98847.56;;;7.48;100.00
72721;BME280;60835;50.974;10.322;2023-04-28T02:23:53;98849.38;;;7.36;100.00
72721;BME280;60835;50.974;10.322;2023-04-28T02:26:19;98852.53;;;7.30;100.00
72721;BME280;60835;50.974;10.322;2023-04-28T02:28:46;98849.03;;;7.41;100.00
72721;BME280;60835;50.974;10.322;2023-04-28T02:31:14;98838.25;;;7.44;100.00
72721;BME280;60835;50.974;10.322;2023-04-28T02:33:41;98833.56;;;7.36;100.00
72721;BME280;60835;50.974;10.322;2023-04-28T02:36:14;98821.50;;;7.33;100.00
72721;BME280;60835;50.974;10.322;2023-04-28T02:38:46;98835.03;;;7.29;100.00
72721;BME280;60835;50.974;10.322;2023-04-28T02:41:12;98834.34;;;7.27;100.00
72721;BME280;60835;50.974;10.322;2023-04-28T02:43:40;98832.78;;;7.24;100.00
72721;BME280;60835;50.974;10.322;2023-04-28T02:46:07;98821.44;;;7.24;100.00
72721;BME280;60835;50.974;10.322;2023-04-28T02:48:34;98824.34;;;7.42;100.00
72721;BME280;60835;50.974;10.322;2023-04-28T02:51:02;98824.69;;;7.48;100.00
72721;BME280;60835;50.974;10.322;2023-04-28T02:53:28;98826.94;;;7.53;100.00
72721;BME280;60835;50.974;10.322;2023-04-28T02:55:55;98826.53;;;7.36;100.00
72721;BME280;60835;50.974;10.322;2023-04-28T02:58:22;98818.59;;;7.48;100.00
72721;BME280;60835;50.974;10.322;2023-04-28T03:00:48;98818.59;;;7.48;100.00
72721;BME280;60835;50.974;10.322;2023-04-28T03:03:15;98808.56;;;7.42;100.00
72721;BME280;60835;50.974;10.322;2023-04-28T03:05:42;98801.06;;;7.37;100.00
72721;BME280;60835;50.974;10.322;2023-04-28T03:08:08;98796.19;;;7.21;100.00
72721;BME280;60835;50.974;10.322;2023-04-28T03:10:35;98789.19;;;7.43;100.00
72721;BME280;60835;50.974;10.322;2023-04-28T03:13:01;98794.16;;;7.57;100.00
72721;BME280;60835;50.974;10.322;2023-04-28T03:15:28;98785.88;;;7.61;100.00
72721;BME280;60835;50.974;10.322;2023-04-28T03:17:54;98783.84;;;7.33;100.00
72721;BME280;60835;50.974;10.322;2023-04-28T03:20:21;98774.41;;;7.30;100.00
72721;BME280;60835;50.974;10.322;2023-04-28T03:22:48;98770.56;;;7.34;100.00
72721;BME280;60835;50.974;10.322;2023-04-28T03:25:14;98776.91;;;7.32;100.00
72721;BME280;60835;50.974;10.322;2023-04-28T03:27:41;98768.41;;;7.28;100.00
72721;BME280;60835;50.974;10.322;2023-04-28T03:30:08;98768.94;;;7.22;100.00
72721;BME280;60835;50.974;10.322;2023-04-28T03:32:35;98767.97;;;7.23;100.00
72721;BME280;60835;50.974;10.322;2023-04-28T03:35:02;98771.28;;;7.25;100.00
72721;BME280;60835;50.974;10.322;2023-04-28T03:37:28;98760.19;;;7.22;100.00
72721;BME280;60835;50.974;10.322;2023-04-28T03:39:55;98752.47;;;7.09;100.00
72721;BME280;60835;50.974;10.322;2023-04-28T03:42:22;98749.31;;;7.15;100.00
72721;BME280;60835;50.974;10.322;2023-04-28T03:44:48;98727.97;;;7.09;100.00
72721;BME280;60835;50.974;10.322;2023-04-28T03:47:15;98728.69;;;7.00;100.00
72721;BME280;60835;50.974;10.322;2023-04-28T03:49:41;98724.72;;;7.05;100.00
72721;BME280;60835;50.974;10.322;2023-04-28T03:52:08;98716.59;;;7.08;100.00
72721;BME280;60835;50.974;10.322;2023-04-28T03:54:34;98716.34;;;7.11;100.00
72721;BME280;60835;50.974;10.322;2023-04-28T03:57:01;98713.53;;;6.92;100.00
72721;BME280;60835;50.974;10.322;2023-04-28T03:59:27;98701.63;;;6.88;100.00
72721;BME280;60835;50.974;10.322;2023-04-28T04:01:54;98698.47;;;6.94;100.00
72721;BME280;60835;50.974;10.322;2023-04-28T04:04:20;98693.72;;;6.88;100.00
72721;BME280;60835;50.974;10.322;2023-04-28T04:06:48;98674.16;;;6.70;100.00
72721;BME280;60835;50.974;10.322;2023-04-28T04:09:15;98668.41;;;6.76;100.00
72721;BME280;60835;50.974;10.322;2023-04-28T04:11:42;98658.56;;;6.89;100.00
72721;BME280;60835;50.974;10.322;2023-04-28T04:14:08;98645.16;;;6.92;100.00
72721;BME280;60835;50.974;10.322;2023-04-28T04:16:35;98641.13;;;6.88;100.00
72721;BME280;60835;50.974;10.322;2023-04-28T04:19:02;98635.78;;;6.79;100.00
72721;BME280;60835;50.974;10.322;2023-04-28T04:21:29;98636.25;;;6.72;100.00
72721;BME280;60835;50.974;10.322;2023-04-28T04:23:57;98630.00;;;6.85;100.00
72721;BME280;60835;50.974;10.322;2023-04-28T04:26:23;98617.94;;;6.82;100.00
72721;BME280;60835;50.974;10.322;2023-04-28T04:28:50;98621.44;;;6.83;100.00
72721;BME280;60835;50.974;10.322;2023-04-28T04:31:17;98623.66;;;6.87;100.00
72721;BME280;60835;50.974;10.322;2023-04-28T04:33:45;98623.53;;;6.89;100.00
72721;BME280;60835;50.974;10.322;2023-04-28T04:36:11;98592.78;;;6.68;100.00
72721;BME280;60835;50.974;10.322;2023-04-28T04:38:38;98633.09;;;6.90;100.00
72721;BME280;60835;50.974;10.322;2023-04-28T04:41:05;98629.31;;;6.83;100.00
72721;BME280;60835;50.974;10.322;2023-04-28T04:43:32;98624.50;;;6.88;100.00
72721;BME280;60835;50.974;10.322;2023-04-28T04:45:58;98618.44;;;6.76;100.00
72721;BME280;60835;50.974;10.322;2023-04-28T04:48:25;98598.06;;;6.89;100.00
72721;BME280;60835;50.974;10.322;2023-04-28T04:50:52;98609.97;;;6.72;100.00
72721;BME280;60835;50.974;10.322;2023-04-28T04:53:19;98595.13;;;6.83;100.00
72721;BME280;60835;50.974;10.322;2023-04-28T04:55:46;98574.91;;;6.83;100.00
72721;BME280;60835;50.974;10.322;2023-04-28T04:58:12;98562.72;;;6.82;100.00
72721;BME280;60835;50.974;10.322;2023-04-28T05:00:39;98537.72;;;6.67;100.00
72721;BME280;60835;50.974;10.322;2023-04-28T05:03:05;98576.28;;;6.98;100.00
72721;BME280;60835;50.974;10.322;2023-04-28T05:05:33;98543.84;;;7.18;100.00
72721;BME280;60835;50.974;10.322;2023-04-28T05:07:59;98533.56;;;6.85;100.00
72721;BME280;60835;50.974;10.322;2023-04-28T05:10:27;98515.91;;;6.76;100.00
72721;BME280;60835;50.974;10.322;2023-04-28T05:12:54;98497.31;;;6.68;100.00
72721;BME280;60835;50.974;10.322;2023-04-28T05:15:21;98476.41;;;6.66;100.00
72721;BME280;60835;50.974;10.322;2023-04-28T05:17:48;98466.34;;;6.71;100.00
72721;BME280;60835;50.974;10.322;2023-04-28T05:20:14;98482.75;;;6.85;100.00
72721;BME280;60835;50.974;10.322;2023-04-28T05:22:41;98461.19;;;6.91;100.00
72721;BME280;60835;50.974;10.322;2023-04-28T05:25:08;98437.16;;;7.05;100.00
72721;BME280;60835;50.974;10.322;2023-04-28T05:27:35;98405.06;;;7.01;100.00
72721;BME280;60835;50.974;10.322;2023-04-28T05:30:07;98384.34;;;7.17;100.00
72721;BME280;60835;50.974;10.322;2023-04-28T05:32:34;98401.47;;;6.72;100.00
72721;BME280;60835;50.974;10.322;2023-04-28T05:35:01;98373.09;;;6.75;100.00
72721;BME280;60835;50.974;10.322;2023-04-28T05:37:28;98360.03;;;6.95;100.00
72721;BME280;60835;50.974;10.322;2023-04-28T05:39:55;98325.56;;;6.88;100.00
72721;BME280;60835;50.974;10.322;2023-04-28T05:42:21;98310.41;;;6.71;100.00
72721;BME280;60835;50.974;10.322;2023-04-28T05:44:48;98294.41;;;6.93;100.00
72721;BME280;60835;50.974;10.322;2023-04-28T05:47:14;98251.34;;;6.75;100.00
72721;BME280;60835;50.974;10.322;2023-04-28T05:49:41;98189.91;;;6.86;100.00
72721;BME280;60835;50.974;10.322;2023-04-28T05:52:07;98108.38;;;6.95;100.00
72721;BME280;60835;50.974;10.322;2023-04-28T05:54:34;98110.06;;;6.77;100.00
72721;BME280;60835;50.974;10.322;2023-04-28T05:57:05;98068.97;;;6.86;100.00
72721;BME280;60835;50.974;10.322;2023-04-28T05:59:32;98050.13;;;6.90;100.00
72721;BME280;60835;50.974;10.322;2023-04-28T06:01:59;98007.69;;;7.12;100.00
72721;BME280;60835;50.974;10.322;2023-04-28T06:04:25;98017.16;;;7.05;100.00
72721;BME280;60835;50.974;10.322;2023-04-28T06:06:53;97980.16;;;6.60;100.00
72721;BME280;60835;50.974;10.322;2023-04-28T06:09:19;97991.59;;;6.79;100.00
72721;BME280;60835;50.974;10.322;2023-04-28T06:11:46;97949.09;;;6.93;100.00
72721;BME280;60835;50.974;10.322;2023-04-28T06:14:12;97900.56;;;7.14;100.00
72721;BME280;60835;50.974;10.322;2023-04-28T06:16:39;97871.84;;;6.94;100.00
72721;BME280;60835;50.974;10.322;2023-04-28T06:19:06;97805.50;;;6.82;100.00
72721;BME280;60835;50.974;10.322;2023-04-28T06:21:52;97739.84;;;6.90;100.00
72721;BME280;60835;50.974;10.322;2023-04-28T06:24:19;97681.94;;;7.17;100.00
72721;BME280;60835;50.974;10.322;2023-04-28T06:26:46;97644.13;;;7.18;100.00
72721;BME280;60835;50.974;10.322;2023-04-28T06:29:13;97660.88;;;7.00;100.00
72721;BME280;60835;50.974;10.322;2023-04-28T06:31:39;97616.50;;;6.79;100.00
72721;BME280;60835;50.974;10.322;2023-04-28T06:34:08;97600.03;;;6.95;100.00
72721;BME280;60835;50.974;10.322;2023-04-28T06:36:40;97561.38;;;7.13;100.00
72721;BME280;60835;50.974;10.322;2023-04-28T06:39:13;97560.59;;;7.20;100.00
72721;BME280;60835;50.974;10.322;2023-04-28T06:41:39;97562.16;;;7.31;100.00
72721;BME280;60835;50.974;10.322;2023-04-28T06:44:06;97583.47;;;7.46;100.00
72721;BME280;60835;50.974;10.322;2023-04-28T06:46:33;97575.84;;;7.34;100.00
72721;BME280;60835;50.974;10.322;2023-04-28T06:49:00;97581.72;;;7.28;100.00
72721;BME280;60835;50.974;10.322;2023-04-28T06:51:26;97561.06;;;7.42;100.00
72721;BME280;60835;50.974;10.322;2023-04-28T06:53:54;97547.78;;;7.43;100.00
72721;BME280;60835;50.974;10.322;2023-04-28T06:56:20;97535.81;;;7.49;100.00
72721;BME280;60835;50.974;10.322;2023-04-28T06:58:47;97535.19;;;7.63;100.00
72721;BME280;60835;50.974;10.322;2023-04-28T07:01:16;97523.38;;;7.67;100.00
72721;BME280;60835;50.974;10.322;2023-04-28T07:03:43;97508.72;;;7.64;100.00
72721;BME280;60835;50.974;10.322;2023-04-28T07:06:10;97529.50;;;7.42;100.00
72721;BME280;60835;50.974;10.322;2023-04-28T07:08:36;97455.91;;;7.66;100.00
72721;BME280;60835;50.974;10.322;2023-04-28T07:11:03;97408.25;;;7.93;100.00
72721;BME280;60835;50.974;10.322;2023-04-28T07:13:30;97432.72;;;7.69;100.00
72721;BME280;60835;50.974;10.322;2023-04-28T07:15:57;97413.88;;;8.06;100.00
72721;BME280;60835;50.974;10.322;2023-04-28T07:18:25;97424.06;;;7.93;100.00
72721;BME280;60835;50.974;10.322;2023-04-28T07:20:51;97415.16;;;7.78;100.00
72721;BME280;60835;50.974;10.322;2023-04-28T07:23:18;97372.38;;;7.84;100.00
72721;BME280;60835;50.974;10.322;2023-04-28T07:25:44;97299.97;;;7.88;100.00
72721;BME280;60835;50.974;10.322;2023-04-28T07:28:11;97308.53;;;7.90;100.00
72721;BME280;60835;50.974;10.322;2023-04-28T07:30:38;97313.47;;;7.85;100.00
72721;BME280;60835;50.974;10.322;2023-04-28T07:33:04;97305.88;;;7.66;100.00
72721;BME280;60835;50.974;10.322;2023-04-28T07:35:32;97257.84;;;7.72;100.00
72721;BME280;60835;50.974;10.322;2023-04-28T07:37:58;97214.41;;;7.68;100.00
72721;BME280;60835;50.974;10.322;2023-04-28T07:40:25;97172.44;;;7.74;100.00
72721;BME280;60835;50.974;10.322;2023-04-28T07:42:51;97131.34;;;7.57;100.00
72721;BME280;60835;50.974;10.322;2023-04-28T07:45:26;97045.19;;;7.51;100.00
72721;BME280;60835;50.974;10.322;2023-04-28T07:47:53;96938.16;;;7.44;100.00
72721;BME280;60835;50.974;10.322;2023-04-28T07:50:19;96829.44;;;7.51;100.00
72721;BME280;60835;50.974;10.322;2023-04-28T07:52:46;96760.19;;;7.51;100.00
72721;BME280;60835;50.974;10.322;2023-04-28T07:55:13;96691.63;;;7.29;100.00
72721;BME280;60835;50.974;10.322;2023-04-28T07:57:39;96640.75;;;7.37;100.00
72721;BME280;60835;50.974;10.322;2023-04-28T08:00:07;96622.75;;;7.49;100.00
72721;BME280;60835;50.974;10.322;2023-04-28T08:02:35;96590.84;;;7.81;100.00
72721;BME280;60835;50.974;10.322;2023-04-28T08:05:02;96603.88;;;7.89;100.00
72721;BME280;60835;50.974;10.322;2023-04-28T08:07:29;96613.03;;;7.49;100.00
72721;BME280;60835;50.974;10.322;2023-04-28T08:09:55;96617.41;;;7.57;100.00
72721;BME280;60835;50.974;10.322;2023-04-28T08:12:32;96811.41;;;7.40;100.00
72721;BME280;60835;50.974;10.322;2023-04-28T08:14:59;96802.28;;;7.73;100.00
72721;BME280;60835;50.974;10.322;2023-04-28T08:17:26;96802.56;;;8.01;100.00
72721;BME280;60835;50.974;10.322;2023-04-28T08:19:53;96794.19;;;7.97;100.00
72721;BME280;60835;50.974;10.322;2023-04-28T08:22:19;96804.63;;;7.91;100.00
72721;BME280;60835;50.974;10.322;2023-04-28T08:24:46;96812.69;;;8.12;100.00
72721;BME280;60835;50.974;10.322;2023-04-28T08:27:13;96821.34;;;7.98;100.00
72721;BME280;60835;50.974;10.322;2023-04-28T08:29:39;96820.66;;;8.04;100.00
72721;BME280;60835;50.974;10.322;2023-04-28T08:32:06;96806.47;;;8.05;100.00
72721;BME280;60835;50.974;10.322;2023-04-28T08:34:33;96811.66;;;8.13;100.00
72721;BME280;60835;50.974;10.322;2023-04-28T08:37:00;96811.59;;;8.21;100.00
72721;BME280;60835;50.974;10.322;2023-04-28T08:39:31;96811.59;;;8.21;100.00
72721;BME280;60835;50.974;10.322;2023-04-28T08:42:01;96790.22;;;8.53;100.00
72721;BME280;60835;50.974;10.322;2023-04-28T08:44:36;96798.41;;;8.73;100.00
72721;BME280;60835;50.974;10.322;2023-04-28T08:47:12;96769.94;;;8.39;100.00
72721;BME280;60835;50.974;10.322;2023-04-28T08:49:40;96833.75;;;8.49;100.00
72721;BME280;60835;50.974;10.322;2023-04-28T08:52:11;96834.63;;;8.42;100.00
72721;BME280;60835;50.974;10.322;2023-04-28T08:54:40;96834.94;;;8.47;100.00
72721;BME280;60835;50.974;10.322;2023-04-28T08:57:10;96836.00;;;8.52;100.00
72721;BME280;60835;50.974;10.322;2023-04-28T08:59:39;96836.00;;;8.52;100.00
72721;BME280;60835;50.974;10.322;2023-04-28T09:02:07;96820.59;;;8.79;100.00
72721;BME280;60835;50.974;10.322;2023-04-28T09:04:34;96812.22;;;8.90;100.00
72721;BME280;60835;50.974;10.322;2023-04-28T09:07:09;96808.28;;;9.00;100.00
72721;BME280;60835;50.974;10.322;2023-04-28T09:09:40;96816.94;;;8.80;100.00
72721;BME280;60835;50.974;10.322;2023-04-28T09:12:07;96825.41;;;8.90;100.00
72721;BME280;60835;50.974;10.322;2023-04-28T09:14:34;96833.31;;;8.90;100.00
72721;BME280;60835;50.974;10.322;2023-04-28T09:17:02;96833.13;;;8.77;100.00
72721;BME280;60835;50.974;10.322;2023-04-28T09:19:32;96832.59;;;8.67;100.00
72721;BME280;60835;50.974;10.322;2023-04-28T09:21:59;96819.13;;;8.91;100.00
72721;BME280;60835;50.974;10.322;2023-04-28T09:24:38;96809.91;;;9.16;100.00
72721;BME280;60835;50.974;10.322;2023-04-28T09:27:12;96816.19;;;9.15;100.00
72721;BME280;60835;50.974;10.322;2023-04-28T09:29:50;96814.56;;;9.14;100.00
72721;BME280;60835;50.974;10.322;2023-04-28T09:32:18;96816.59;;;8.97;100.00
72721;BME280;60835;50.974;10.322;2023-04-28T09:34:46;96817.81;;;9.16;100.00
72721;BME280;60835;50.974;10.322;2023-04-28T09:37:13;96819.47;;;9.17;100.00
72721;BME280;60835;50.974;10.322;2023-04-28T09:39:40;96833.88;;;9.00;100.00
72721;BME280;60835;50.974;10.322;2023-04-28T09:42:07;96840.75;;;9.01;100.00
72721;BME280;60835;50.974;10.322;2023-04-28T09:44:33;96823.56;;;9.19;100.00
72721;BME280;60835;50.974;10.322;2023-04-28T09:47:00;96824.66;;;8.96;100.00
72721;BME280;60835;50.974;10.322;2023-04-28T09:52:22;96814.28;;;9.24;100.00
72721;BME280;60835;50.974;10.322;2023-04-28T09:54:52;96814.34;;;9.30;100.00
72721;BME280;60835;50.974;10.322;2023-04-28T09:57:19;96832.03;;;9.15;100.00
72721;BME280;60835;50.974;10.322;2023-04-28T09:59:48;96821.72;;;9.20;100.00
72721;BME280;60835;50.974;10.322;2023-04-28T10:02:15;96829.53;;;9.28;100.00
72721;BME280;60835;50.974;10.322;2023-04-28T10:05:02;96812.94;;;8.98;100.00
72721;BME280;60835;50.974;10.322;2023-04-28T10:07:30;96824.22;;;9.07;100.00
72721;BME280;60835;50.974;10.322;2023-04-28T10:10:00;96822.94;;;9.03;100.00
72721;BME280;60835;50.974;10.322;2023-04-28T10:12:27;96819.34;;;9.25;100.00
72721;BME280;60835;50.974;10.322;2023-04-28T10:14:53;96823.75;;;9.18;100.00
72721;BME280;60835;50.974;10.322;2023-04-28T10:17:20;96808.44;;;9.28;100.00
72721;BME280;60835;50.974;10.322;2023-04-28T10:19:48;96809.59;;;9.40;100.00
72721;BME280;60835;50.974;10.322;2023-04-28T10:27:26;96806.97;;;9.61;100.00
72721;BME280;60835;50.974;10.322;2023-04-28T10:30:06;96819.97;;;9.27;100.00
72721;BME280;60835;50.974;10.322;2023-04-28T10:35:40;96790.38;;;9.67;100.00
72721;BME280;60835;50.974;10.322;2023-04-28T10:43:04;96767.28;;;10.18;100.00
72721;BME280;60835;50.974;10.322;2023-04-28T10:49:06;96770.53;;;10.14;100.00
72721;BME280;60835;50.974;10.322;2023-04-28T10:58:44;96719.13;;;10.57;100.00
72721;BME280;60835;50.974;10.322;2023-04-28T11:08:48;96705.31;;;10.62;100.00
72721;BME280;60835;50.974;10.322;2023-04-28T11:11:18;96681.22;;;10.91;100.00
72721;BME280;60835;50.974;10.322;2023-04-28T11:13:45;96700.91;;;10.69;100.00
72721;BME280;60835;50.974;10.322;2023-04-28T11:16:13;96708.50;;;10.44;100.00
72721;BME280;60835;50.974;10.322;2023-04-28T11:18:56;96685.88;;;10.76;100.00
72721;BME280;60835;50.974;10.322;2023-04-28T11:21:24;96708.78;;;10.62;100.00
72721;BME280;60835;50.974;10.322;2023-04-28T11:23:53;96713.34;;;10.75;100.00
72721;BME280;60835;50.974;10.322;2023-04-28T11:26:20;96690.06;;;11.18;100.00
72721;BME280;60835;50.974;10.322;2023-04-28T11:28:49;96704.75;;;11.27;100.00
72721;BME280;60835;50.974;10.322;2023-04-28T11:31:16;96708.25;;;11.47;100.00
72721;BME280;60835;50.974;10.322;2023-04-28T11:33:50;96703.16;;;11.65;100.00
72721;BME280;60835;50.974;10.322;2023-04-28T11:36:25;96750.72;;;11.13;100.00
72721;BME280;60835;50.974;10.322;2023-04-28T11:38:53;96746.66;;;11.17;100.00
72721;BME280;60835;50.974;10.322;2023-04-28T11:41:21;96734.50;;;11.42;100.00
72721;BME280;60835;50.974;10.322;2023-04-28T11:43:48;96750.72;;;11.06;100.00
72721;BME280;60835;50.974;10.322;2023-04-28T11:46:18;96740.19;;;11.39;100.00
72721;BME280;60835;50.974;10.322;2023-04-28T11:48:45;96726.22;;;11.65;100.00
72721;BME280;60835;50.974;10.322;2023-04-28T11:51:34;96738.63;;;11.51;100.00
72721;BME280;60835;50.974;10.322;2023-04-28T11:54:01;96731.28;;;11.53;100.00
72721;BME280;60835;50.974;10.322;2023-04-28T11:56:28;96690.91;;;12.43;100.00
72721;BME280;60835;50.974;10.322;2023-04-28T11:59:02;96698.41;;;12.52;100.00
72721;BME280;60835;50.974;10.322;2023-04-28T12:01:31;96739.41;;;12.76;100.00
72721;BME280;60835;50.974;10.322;2023-04-28T12:03:58;96761.09;;;12.47;100.00
72721;BME280;60835;50.974;10.322;2023-04-28T12:06:25;96755.06;;;12.91;100.00
72721;BME280;60835;50.974;10.322;2023-04-28T12:08:51;96753.09;;;13.24;100.00
72721;BME280;60835;50.974;10.322;2023-04-28T12:11:18;96760.38;;;13.41;100.00
72721;BME280;60835;50.974;10.322;2023-04-28T12:14:07;96763.91;;;13.67;100.00
72721;BME280;60835;50.974;10.322;2023-04-28T12:16:36;96808.56;;;12.81;100.00
72721;BME280;60835;50.974;10.322;2023-04-28T12:19:04;96796.81;;;13.21;100.00
72721;BME280;60835;50.974;10.322;2023-04-28T12:21:35;96804.56;;;13.29;100.00
72721;BME280;60835;50.974;10.322;2023-04-28T12:24:19;96822.88;;;12.67;100.00
72721;BME280;60835;50.974;10.322;2023-04-28T12:26:47;96811.75;;;13.03;100.00
72721;BME280;60835;50.974;10.322;2023-04-28T12:31:59;96796.00;;;13.27;100.00
72721;BME280;60835;50.974;10.322;2023-04-28T12:34:26;96807.91;;;12.92;100.00
72721;BME280;60835;50.974;10.322;2023-04-28T12:36:54;96815.50;;;12.82;100.00
72721;BME280;60835;50.974;10.322;2023-04-28T12:39:21;96810.56;;;12.92;100.00
72721;BME280;60835;50.974;10.322;2023-04-28T12:41:48;96805.06;;;12.87;100.00
72721;BME280;60835;50.974;10.322;2023-04-28T12:44:14;96791.78;;;12.94;100.00
72721;BME280;60835;50.974;10.322;2023-04-28T12:46:42;96778.19;;;13.34;100.00
72721;BME280;60835;50.974;10.322;2023-04-28T12:49:09;96759.94;;;14.07;100.00
72721;BME280;60835;50.974;10.322;2023-04-28T12:51:35;96767.22;;;14.18;100.00
72721;BME280;60835;50.974;10.322;2023-04-28T12:54:04;96763.16;;;14.40;100.00
72721;BME280;60835;50.974;10.322;2023-04-28T12:56:32;96760.84;;;14.50;100.00
72721;BME280;60835;50.974;10.322;2023-04-28T12:58:59;96790.53;;;13.60;100.00
72721;BME280;60835;50.974;10.322;2023-04-28T13:01:29;96759.03;;;14.69;100.00
72721;BME280;60835;50.974;10.322;2023-04-28T13:03:56;96800.63;;;14.39;100.00
72721;BME280;60835;50.974;10.322;2023-04-28T13:06:23;96835.94;;;14.77;100.00
72721;BME280;60835;50.974;10.322;2023-04-28T13:08:49;96912.78;;;14.42;100.00
72721;BME280;60835;50.974;10.322;2023-04-28T13:11:15;96857.00;;;14.54;100.00
72721;BME280;60835;50.974;10.322;2023-04-28T13:13:48;96850.09;;;14.15;100.00
72721;BME280;60835;50.974;10.322;2023-04-28T13:16:14;96845.63;;;14.40;100.00
72721;BME280;60835;50.974;10.322;2023-04-28T13:18:41;96865.03;;;14.16;100.00
72721;BME280;60835;50.974;10.322;2023-04-28T13:21:07;96870.69;;;14.26;100.00
72721;BME280;60835;50.974;10.322;2023-04-28T13:23:34;96879.09;;;14.23;100.00
72721;BME280;60835;50.974;10.322;2023-04-28T13:26:00;96875.16;;;14.32;100.00
72721;BME280;60835;50.974;10.322;2023-04-28T13:28:27;96901.06;;;14.12;100.00